Time;durP1;ratioP1;P1;durP2;ratioP2;P2;SDS_P1;SDS_P2;PMS_P1;PMS_P2;Temp;Humidity;BMP_temperature;BMP_pressure;BME280_temperature;BME280_humidity;BME280_pressure;Samples;Min_cycle;Max_cycle;Signal;HPM_P1;HPM_P2
2021/09/17 00:01:32;;;;;;;14.20;8.70;;;;;;;;;;5038943;28;20418;-64
2021/09/17 00:03:58;;;;;;;19.60;9.93;;;;;;;;;;5020925;28;20455;-63
2021/09/17 00:06:24;;;;;;;16.37;10.10;;;;;;;;;;5018093;28;20820;-64
2021/09/17 00:08:50;;;;;;;15.80;10.37;;;;;;;;;;5060105;23;20486;-70
2021/09/17 00:11:16;;;;;;;14.47;9.50;;;;;;;;;;5052322;28;20425;-70
2021/09/17 00:13:43;;;;;;;14.07;9.97;;;;;;;;;;5056425;28;20400;-70
2021/09/17 00:16:09;;;;;;;20.17;9.57;;;;;;;;;;5054579;28;20430;-70
2021/09/17 00:18:35;;;;;;;15.53;10.63;;;;;;;;;;5056317;28;20414;-70
2021/09/17 00:21:01;;;;;;;15.73;9.57;;;;;;;;;;5054520;28;20545;-70
2021/09/17 00:23:27;;;;;;;17.57;10.60;;;;;;;;;;5056367;28;20793;-70
2021/09/17 00:25:53;;;;;;;14.67;9.57;;;;;;;;;;5054163;28;20429;-70
2021/09/17 00:28:19;;;;;;;16.70;9.90;;;;;;;;;;5056111;28;20422;-70
2021/09/17 00:30:45;;;;;;;20.03;11.30;;;;;;;;;;5054567;28;20479;-70
2021/09/17 00:33:11;;;;;;;20.83;10.53;;;;;;;;;;5056041;28;20440;-70
2021/09/17 00:35:37;;;;;;;15.93;10.83;;;;;;;;;;5054029;28;20491;-70
2021/09/17 00:38:04;;;;;;;18.20;10.53;;;;;;;;;;5038219;28;20778;-70
2021/09/17 00:40:30;;;;;;;16.70;10.90;;;;;;;;;;5053975;28;20485;-70
2021/09/17 00:42:57;;;;;;;18.40;11.63;;;;;;;;;;5055927;28;20433;-70
2021/09/17 00:45:23;;;;;;;17.03;10.63;;;;;;;;;;5053905;28;20446;-70
2021/09/17 00:47:49;;;;;;;17.30;10.87;;;;;;;;;;5055851;28;20397;-70
2021/09/17 00:50:17;;;;;;;19.17;11.07;;;;;;;;;;5039893;28;21053;-70
2021/09/17 00:52:43;;;;;;;18.63;10.97;;;;;;;;;;5016189;28;20403;-70
2021/09/17 00:55:10;;;;;;;16.40;10.87;;;;;;;;;;5028389;28;20452;-70
2021/09/17 00:57:36;;;;;;;15.87;10.37;;;;;;;;;;5053847;28;20398;-70
2021/09/17 01:00:06;;;;;;;17.80;10.60;;;;;;;;;;5025806;28;20925;-70
2021/09/17 01:02:33;;;;;;;17.10;10.73;;;;;;;;;;5055733;28;20699;-70
2021/09/17 01:04:59;;;;;;;16.30;11.17;;;;;;;;;;5039117;28;20422;-70
2021/09/17 01:07:25;;;;;;;20.27;11.20;;;;;;;;;;5035232;28;20404;-70
2021/09/17 01:09:51;;;;;;;20.67;11.97;;;;;;;;;;5043651;28;20465;-70
2021/09/17 01:12:17;;;;;;;23.90;11.53;;;;;;;;;;5055418;28;20938;-70
2021/09/17 01:14:43;;;;;;;19.13;11.93;;;;;;;;;;5034022;28;20470;-70
2021/09/17 01:17:09;;;;;;;16.77;11.10;;;;;;;;;;5016100;28;20412;-71
2021/09/17 01:19:36;;;;;;;17.03;10.63;;;;;;;;;;5028944;28;20453;-70
2021/09/17 01:22:06;;;;;;;16.40;11.00;;;;;;;;;;5055176;28;20402;-70
2021/09/17 01:24:32;;;;;;;24.53;11.93;;;;;;;;;;5029319;28;20441;-70
2021/09/17 01:26:58;;;;;;;16.90;10.67;;;;;;;;;;5035254;28;20823;-70
2021/09/17 01:29:24;;;;;;;19.53;12.10;;;;;;;;;;5017060;28;20484;-70
2021/09/17 01:31:51;;;;;;;17.60;12.03;;;;;;;;;;5055163;28;20493;-70
2021/09/17 01:34:23;;;;;;;22.40;11.50;;;;;;;;;;5053973;28;20457;-70
2021/09/17 01:36:49;;;;;;;17.50;11.17;;;;;;;;;;4997783;28;20403;-70
2021/09/17 01:39:16;;;;;;;20.50;11.30;;;;;;;;;;4997541;28;20433;-70
2021/09/17 01:41:42;;;;;;;17.83;11.10;;;;;;;;;;5053254;28;20500;-70
2021/09/17 01:44:09;;;;;;;16.63;11.40;;;;;;;;;;5054928;28;20438;-70
2021/09/17 01:46:35;;;;;;;14.90;10.60;;;;;;;;;;5053011;28;20988;-70
2021/09/17 01:49:01;;;;;;;19.03;11.80;;;;;;;;;;5043776;28;20965;-70
2021/09/17 01:51:28;;;;;;;17.73;11.40;;;;;;;;;;5033915;28;20422;-70
2021/09/17 01:53:54;;;;;;;15.57;9.00;;;;;;;;;;5016905;28;20410;-70
2021/09/17 01:56:23;;;;;;;15.80;10.00;;;;;;;;;;5037986;28;20425;-70
2021/09/17 01:58:50;;;;;;;17.80;9.43;;;;;;;;;;5054696;28;20422;-70
2021/09/17 02:01:16;;;;;;;18.57;10.60;;;;;;;;;;5034734;28;20457;-70
2021/09/17 02:03:42;;;;;;;21.20;11.50;;;;;;;;;;5018389;28;20986;-70
2021/09/17 02:06:08;;;;;;;13.67;10.23;;;;;;;;;;5047118;28;20465;-70
2021/09/17 02:08:34;;;;;;;13.47;9.10;;;;;;;;;;5036213;28;20493;-70
2021/09/17 02:11:00;;;;;;;13.57;8.80;;;;;;;;;;5034947;28;20434;-70
2021/09/17 02:13:26;;;;;;;19.50;10.70;;;;;;;;;;5034393;28;20493;-70
2021/09/17 02:15:53;;;;;;;11.90;8.63;;;;;;;;;;5022378;28;20443;-70
2021/09/17 02:18:20;;;;;;;15.63;9.53;;;;;;;;;;5014691;28;20537;-70
2021/09/17 02:20:47;;;;;;;20.00;8.53;;;;;;;;;;5023697;28;20466;-70
2021/09/17 02:23:13;;;;;;;16.10;9.90;;;;;;;;;;5034127;28;20403;-70
2021/09/17 02:25:39;;;;;;;14.97;8.87;;;;;;;;;;5032756;28;20514;-70
2021/09/17 02:28:05;;;;;;;15.27;10.23;;;;;;;;;;5034118;28;20468;-70
2021/09/17 02:30:31;;;;;;;10.47;8.00;;;;;;;;;;5032122;28;20462;-70
2021/09/17 02:32:57;;;;;;;16.57;8.80;;;;;;;;;;5016355;28;20415;-70
2021/09/17 02:35:24;;;;;;;13.17;8.83;;;;;;;;;;5032943;28;20484;-70
2021/09/17 02:37:50;;;;;;;13.20;9.30;;;;;;;;;;5033788;28;20493;-70
2021/09/17 02:40:17;;;;;;;13.27;8.00;;;;;;;;;;5037587;28;20953;-70
2021/09/17 02:42:43;;;;;;;15.53;8.67;;;;;;;;;;5043029;28;20795;-70
2021/09/17 02:45:10;;;;;;;13.00;9.43;;;;;;;;;;5029762;28;20523;-70
2021/09/17 02:47:37;;;;;;;15.37;9.60;;;;;;;;;;5013976;28;20400;-70
2021/09/17 02:50:03;;;;;;;13.97;9.07;;;;;;;;;;5018324;28;20493;-70
2021/09/17 02:52:29;;;;;;;11.10;8.23;;;;;;;;;;5053600;28;20402;-70
2021/09/17 02:54:55;;;;;;;13.17;8.90;;;;;;;;;;5051451;28;20402;-70
2021/09/17 02:57:21;;;;;;;11.43;7.93;;;;;;;;;;5053619;28;20453;-70
2021/09/17 02:59:47;;;;;;;13.57;8.10;;;;;;;;;;5051555;28;20458;-69
2021/09/17 03:02:14;;;;;;;12.40;8.07;;;;;;;;;;5013683;28;20399;-70
2021/09/17 03:04:40;;;;;;;12.67;8.50;;;;;;;;;;5027499;28;20908;-69
2021/09/17 03:07:06;;;;;;;13.63;8.80;;;;;;;;;;5023883;28;20795;-70
2021/09/17 03:09:32;;;;;;;11.27;8.30;;;;;;;;;;5013401;28;20836;-70
2021/09/17 03:11:58;;;;;;;13.83;8.77;;;;;;;;;;5030011;28;20441;-69
2021/09/17 03:14:24;;;;;;;15.83;10.00;;;;;;;;;;5013466;28;20400;-69
2021/09/17 03:16:50;;;;;;;13.30;8.50;;;;;;;;;;5045509;28;20425;-69
2021/09/17 03:19:17;;;;;;;15.43;8.47;;;;;;;;;;5053139;28;20422;-69
2021/09/17 03:21:43;;;;;;;14.70;8.17;;;;;;;;;;5051537;28;20807;-69
2021/09/17 03:24:09;;;;;;;13.90;9.30;;;;;;;;;;5052168;28;20401;-69
2021/09/17 03:26:35;;;;;;;13.20;8.43;;;;;;;;;;5027406;28;20438;-69
2021/09/17 03:29:01;;;;;;;11.97;8.57;;;;;;;;;;5033336;28;20764;-69
2021/09/17 03:31:27;;;;;;;13.13;8.97;;;;;;;;;;5044241;28;20508;-69
2021/09/17 03:33:54;;;;;;;13.80;8.40;;;;;;;;;;5020036;28;20481;-69
2021/09/17 03:36:20;;;;;;;14.00;9.63;;;;;;;;;;5021925;28;20442;-69
2021/09/17 03:38:46;;;;;;;13.00;8.60;;;;;;;;;;5020624;28;20444;-69
2021/09/17 03:41:13;;;;;;;18.83;9.47;;;;;;;;;;5032211;28;20469;-69
2021/09/17 03:43:39;;;;;;;12.70;8.50;;;;;;;;;;5033063;28;20525;-71
2021/09/17 03:46:05;;;;;;;16.20;9.60;;;;;;;;;;5022799;28;20426;-70
2021/09/17 03:48:31;;;;;;;15.77;9.20;;;;;;;;;;5052822;28;20441;-70
2021/09/17 03:50:57;;;;;;;20.37;9.80;;;;;;;;;;5050748;28;20430;-70
2021/09/17 03:53:23;;;;;;;14.80;8.47;;;;;;;;;;5052874;28;20409;-70
2021/09/17 03:55:49;;;;;;;13.30;8.77;;;;;;;;;;5043683;28;20430;-70
2021/09/17 03:58:15;;;;;;;14.03;9.90;;;;;;;;;;5032081;28;20480;-70
2021/09/17 04:00:41;;;;;;;14.20;9.70;;;;;;;;;;5027036;28;20490;-70
2021/09/17 04:03:07;;;;;;;17.00;9.90;;;;;;;;;;5032342;28;20415;-70
2021/09/17 04:05:33;;;;;;;13.00;8.50;;;;;;;;;;5034968;28;20453;-70
2021/09/17 04:07:59;;;;;;;10.63;7.97;;;;;;;;;;5052389;28;20806;-70
2021/09/17 04:10:26;;;;;;;13.40;8.90;;;;;;;;;;5027834;28;20431;-71
2021/09/17 04:12:52;;;;;;;14.03;8.40;;;;;;;;;;5052649;28;20402;-70
2021/09/17 04:15:18;;;;;;;15.50;8.60;;;;;;;;;;5032666;28;20410;-70
2021/09/17 04:17:44;;;;;;;12.80;9.23;;;;;;;;;;5052504;28;20405;-70
2021/09/17 04:20:11;;;;;;;13.90;9.30;;;;;;;;;;5033168;28;20544;-70
2021/09/17 04:22:37;;;;;;;12.13;8.67;;;;;;;;;;5052257;28;20803;-70
2021/09/17 04:25:04;;;;;;;10.83;7.43;;;;;;;;;;5052534;28;20771;-70
2021/09/17 04:27:30;;;;;;;12.30;7.93;;;;;;;;;;5031785;28;20525;-70
2021/09/17 04:29:56;;;;;;;10.87;7.73;;;;;;;;;;5032281;28;20458;-70
2021/09/17 04:32:22;;;;;;;14.17;8.90;;;;;;;;;;5048652;28;20456;-70
2021/09/17 04:34:49;;;;;;;13.20;8.30;;;;;;;;;;5052324;28;20409;-70
2021/09/17 04:37:16;;;;;;;15.80;8.87;;;;;;;;;;5018263;28;20428;-70
2021/09/17 04:39:42;;;;;;;15.20;8.67;;;;;;;;;;5012616;28;20463;-70
2021/09/17 04:42:08;;;;;;;15.70;9.33;;;;;;;;;;5043049;28;20437;-70
2021/09/17 04:44:34;;;;;;;14.50;8.63;;;;;;;;;;5041043;28;20438;-70
2021/09/17 04:47:00;;;;;;;14.93;9.07;;;;;;;;;;5048877;28;20482;-70
2021/09/17 04:49:26;;;;;;;14.23;10.23;;;;;;;;;;5055934;28;20525;-70
2021/09/17 04:51:52;;;;;;;12.57;8.20;;;;;;;;;;5054128;28;20429;-70
2021/09/17 04:54:18;;;;;;;17.73;10.10;;;;;;;;;;5055776;28;20890;-70
2021/09/17 04:56:44;;;;;;;13.90;9.37;;;;;;;;;;5053677;28;20940;-70
2021/09/17 04:59:11;;;;;;;15.07;10.70;;;;;;;;;;5037652;28;20452;-70
2021/09/17 05:01:37;;;;;;;14.30;9.10;;;;;;;;;;5044803;28;20431;-70
2021/09/17 05:04:03;;;;;;;12.40;9.00;;;;;;;;;;5017770;28;20417;-70
2021/09/17 05:06:31;;;;;;;15.03;9.30;;;;;;;;;;5034786;28;20434;-70
2021/09/17 05:08:57;;;;;;;15.03;9.00;;;;;;;;;;5035476;28;20453;-70
2021/09/17 05:11:23;;;;;;;15.87;9.90;;;;;;;;;;5016963;28;20431;-70
2021/09/17 05:13:49;;;;;;;13.13;8.73;;;;;;;;;;5035570;28;20398;-70
2021/09/17 05:16:15;;;;;;;15.60;10.07;;;;;;;;;;5034510;28;20883;-69
2021/09/17 05:18:43;;;;;;;15.40;8.57;;;;;;;;;;5035561;28;20509;-69
2021/09/17 05:21:09;;;;;;;17.47;9.70;;;;;;;;;;5038438;28;20460;-70
2021/09/17 05:23:35;;;;;;;14.63;9.30;;;;;;;;;;5055323;28;20819;-70
2021/09/17 05:26:02;;;;;;;14.90;10.40;;;;;;;;;;5047870;28;20833;-70
2021/09/17 05:28:28;;;;;;;13.80;9.37;;;;;;;;;;5016093;28;20780;-69
2021/09/17 05:30:54;;;;;;;12.00;8.80;;;;;;;;;;5015498;28;20454;-70
2021/09/17 05:33:21;;;;;;;15.73;9.57;;;;;;;;;;5034431;28;20422;-70
2021/09/17 05:35:47;;;;;;;15.43;10.27;;;;;;;;;;5035129;28;20769;-69
2021/09/17 05:38:13;;;;;;;16.63;9.07;;;;;;;;;;5018381;28;20443;-70
2021/09/17 05:40:39;;;;;;;19.93;12.00;;;;;;;;;;5015123;28;20451;-70
2021/09/17 05:43:05;;;;;;;14.33;9.93;;;;;;;;;;5044027;28;20504;-69
2021/09/17 05:45:32;;;;;;;17.07;9.40;;;;;;;;;;5055042;28;20410;-69
2021/09/17 05:47:58;;;;;;;12.13;8.43;;;;;;;;;;5026768;28;20792;-69
2021/09/17 05:50:24;;;;;;;13.13;9.40;;;;;;;;;;5014673;28;20857;-69
2021/09/17 05:52:50;;;;;;;15.23;9.50;;;;;;;;;;5026518;28;20580;-70
2021/09/17 05:55:16;;;;;;;15.63;9.57;;;;;;;;;;5034161;28;20887;-69
2021/09/17 05:57:42;;;;;;;14.93;8.80;;;;;;;;;;5044401;28;20835;-69
2021/09/17 06:00:09;;;;;;;14.10;9.53;;;;;;;;;;5050553;28;20500;-68
2021/09/17 06:02:35;;;;;;;14.63;9.33;;;;;;;;;;5023790;28;20426;-69
2021/09/17 06:05:02;;;;;;;13.47;9.33;;;;;;;;;;5028228;28;20460;-69
2021/09/17 06:07:28;;;;;;;13.00;9.73;;;;;;;;;;5038001;28;20547;-69
2021/09/17 06:09:54;;;;;;;13.83;8.40;;;;;;;;;;5048112;22;21034;-67
2021/09/17 06:12:20;;;;;;;15.60;9.63;;;;;;;;;;5019760;28;20435;-67
2021/09/17 06:14:46;;;;;;;14.00;9.00;;;;;;;;;;5030416;28;20384;-67
2021/09/17 06:17:12;;;;;;;11.73;8.30;;;;;;;;;;5014179;28;20440;-67
2021/09/17 06:19:38;;;;;;;13.33;9.90;;;;;;;;;;5013940;28;20835;-68
2021/09/17 06:22:04;;;;;;;19.20;8.80;;;;;;;;;;5010324;28;20448;-70
2021/09/17 06:24:30;;;;;;;14.13;8.90;;;;;;;;;;5009868;28;21010;-68
2021/09/17 06:26:56;;;;;;;13.30;9.93;;;;;;;;;;5010921;28;20420;-67
2021/09/17 06:29:22;;;;;;;14.03;9.20;;;;;;;;;;5013799;28;20432;-67
2021/09/17 06:31:48;;;;;;;11.67;8.40;;;;;;;;;;5011773;28;20526;-67
2021/09/17 06:34:15;;;;;;;12.00;8.57;;;;;;;;;;5013228;28;22748;-67
2021/09/17 06:36:41;;;;;;;14.10;8.63;;;;;;;;;;5012751;28;20404;-67
2021/09/17 06:39:08;;;;;;;14.33;8.83;;;;;;;;;;5013191;28;20466;-67
2021/09/17 06:41:34;;;;;;;11.50;7.73;;;;;;;;;;5011155;28;20475;-68
2021/09/17 06:44:00;;;;;;;13.07;9.10;;;;;;;;;;5012624;28;20416;-71
2021/09/17 06:46:26;;;;;;;12.93;9.03;;;;;;;;;;5014172;28;20816;-72
2021/09/17 06:48:52;;;;;;;12.77;9.33;;;;;;;;;;5013151;28;20812;-78
2021/09/17 06:51:18;;;;;;;13.07;10.20;;;;;;;;;;5012552;28;20472;-74
2021/09/17 06:53:44;;;;;;;13.53;10.23;;;;;;;;;;5008389;28;20432;-75
2021/09/17 06:56:11;;;;;;;18.13;10.70;;;;;;;;;;4987760;28;20884;-73
2021/09/17 06:58:37;;;;;;;24.40;8.60;;;;;;;;;;5007668;28;20821;-74
2021/09/17 07:01:03;;;;;;;15.57;9.07;;;;;;;;;;4994624;28;20460;-75
2021/09/17 07:03:29;;;;;;;10.43;8.07;;;;;;;;;;5003441;28;20463;-70
2021/09/17 07:05:56;;;;;;;13.90;10.00;;;;;;;;;;5008690;28;20924;-67
2021/09/17 07:08:22;;;;;;;13.00;9.27;;;;;;;;;;5010449;28;20924;-65
2021/09/17 07:10:49;;;;;;;11.80;9.00;;;;;;;;;;5007459;28;20455;-65
2021/09/17 07:13:15;;;;;;;13.93;9.30;;;;;;;;;;5008635;28;20431;-76
2021/09/17 07:15:41;;;;;;;9.70;7.57;;;;;;;;;;5009805;28;20420;-67
2021/09/17 07:18:08;;;;;;;11.73;8.93;;;;;;;;;;4987613;28;20486;-74
2021/09/17 07:20:35;;;;;;;10.77;7.80;;;;;;;;;;5009853;28;20464;-72
2021/09/17 07:23:03;;;;;;;10.40;7.80;;;;;;;;;;5010229;28;20419;-72
2021/09/17 07:25:29;;;;;;;9.90;7.77;;;;;;;;;;5011012;28;20411;-74
2021/09/17 07:27:55;;;;;;;11.07;7.80;;;;;;;;;;5005042;28;20924;-73
2021/09/17 07:30:22;;;;;;;11.43;8.10;;;;;;;;;;5008856;28;20807;-73
2021/09/17 07:32:48;;;;;;;12.53;8.57;;;;;;;;;;4999712;28;20888;-74
2021/09/17 07:35:15;;;;;;;11.60;7.90;;;;;;;;;;5011705;28;20797;-70
2021/09/17 07:37:41;;;;;;;15.83;7.70;;;;;;;;;;5008214;28;21286;-73
2021/09/17 07:40:10;;;;;;;8.80;6.07;;;;;;;;;;5010167;28;20478;-68
2021/09/17 07:42:37;;;;;;;13.40;7.80;;;;;;;;;;5003806;28;20797;-76
2021/09/17 07:45:03;;;;;;;11.97;8.83;;;;;;;;;;4991715;28;20506;-74
2021/09/17 07:47:30;;;;;;;13.43;9.03;;;;;;;;;;5007322;28;20843;-73
2021/09/17 07:49:56;;;;;;;17.33;8.60;;;;;;;;;;5009138;28;20814;-73
2021/09/17 07:52:22;;;;;;;13.33;8.43;;;;;;;;;;5007896;28;20880;-74
2021/09/17 07:54:48;;;;;;;9.90;7.50;;;;;;;;;;5007548;28;20518;-67
2021/09/17 07:57:14;;;;;;;12.20;8.03;;;;;;;;;;5009673;28;20521;-72
2021/09/17 07:59:40;;;;;;;12.50;8.80;;;;;;;;;;5010906;28;20462;-74
2021/09/17 08:02:06;;;;;;;9.70;7.60;;;;;;;;;;5008345;28;21019;-66
2021/09/17 08:04:32;;;;;;;10.97;8.63;;;;;;;;;;5009942;28;20415;-67
2021/09/17 08:06:58;;;;;;;10.93;7.60;;;;;;;;;;5003716;28;20454;-68
2021/09/17 08:09:24;;;;;;;10.07;6.90;;;;;;;;;;5009479;28;20447;-67
2021/09/17 08:11:50;;;;;;;10.90;8.73;;;;;;;;;;5006761;28;20432;-75
2021/09/17 08:14:16;;;;;;;10.60;7.30;;;;;;;;;;5009951;28;20435;-77
2021/09/17 08:16:44;;;;;;;17.07;6.93;;;;;;;;;;5011277;28;20435;-75
2021/09/17 08:19:10;;;;;;;8.90;6.17;;;;;;;;;;5007144;28;20493;-68
2021/09/17 08:21:41;;;;;;;7.40;5.83;;;;;;;;;;5011279;28;21109;-67
2021/09/17 08:24:13;;;;;;;7.20;6.40;;;;;;;;;;5014733;28;20410;-75
2021/09/17 08:26:39;;;;;;;8.87;7.10;;;;;;;;;;5012153;28;20869;-75
2021/09/17 08:29:05;;;;;;;7.63;6.23;;;;;;;;;;5015709;28;20534;-74
2021/09/17 08:31:31;;;;;;;8.03;5.97;;;;;;;;;;5011615;28;20447;-71
2021/09/17 08:33:57;;;;;;;9.10;6.10;;;;;;;;;;5011517;28;20440;-74
2021/09/17 08:36:23;;;;;;;7.80;5.00;;;;;;;;;;5011425;28;20466;-71
2021/09/17 08:38:50;;;;;;;7.83;6.50;;;;;;;;;;5014595;28;20450;-73
2021/09/17 08:41:16;;;;;;;6.97;5.97;;;;;;;;;;5015432;28;20467;-72
2021/09/17 08:43:43;;;;;;;6.43;5.10;;;;;;;;;;5010074;28;20847;-74
2021/09/17 08:46:12;;;;;;;8.97;6.20;;;;;;;;;;5012940;28;20423;-66
2021/09/17 08:48:38;;;;;;;8.37;5.80;;;;;;;;;;5008019;28;20446;-71
2021/09/17 08:51:04;;;;;;;8.07;5.70;;;;;;;;;;4994784;28;20510;-72
2021/09/17 08:53:30;;;;;;;9.80;6.70;;;;;;;;;;5013219;28;20435;-70
2021/09/17 08:55:57;;;;;;;8.53;5.50;;;;;;;;;;5011009;28;20845;-72
2021/09/17 08:58:23;;;;;;;8.43;5.67;;;;;;;;;;5010386;28;20789;-74
2021/09/17 09:00:49;;;;;;;7.17;4.83;;;;;;;;;;5012809;28;20470;-70
2021/09/17 09:03:31;;;;;;;9.70;6.20;;;;;;;;;;5013587;28;20501;-71
2021/09/17 09:06:09;;;;;;;7.73;5.70;;;;;;;;;;5012600;28;20489;-68
2021/09/17 09:08:38;;;;;;;6.30;4.77;;;;;;;;;;5010376;28;20462;-78
2021/09/17 09:11:13;;;;;;;5.13;4.63;;;;;;;;;;5015307;28;20408;-75
2021/09/17 09:13:56;;;;;;;7.43;4.53;;;;;;;;;;5010435;28;20469;-70
2021/09/17 09:16:22;;;;;;;5.80;4.20;;;;;;;;;;5010329;28;20829;-70
2021/09/17 09:18:48;;;;;;;5.30;3.90;;;;;;;;;;5012968;28;20995;-72
2021/09/17 09:21:23;;;;;;;5.93;4.10;;;;;;;;;;5011949;28;20455;-73
2021/09/17 09:23:49;;;;;;;8.30;5.47;;;;;;;;;;5011818;28;20434;-70
2021/09/17 09:26:15;;;;;;;12.13;5.20;;;;;;;;;;5012406;28;20428;-74
2021/09/17 09:28:44;;;;;;;5.43;4.60;;;;;;;;;;5011208;28;20826;-75
2021/09/17 09:31:15;;;;;;;7.70;5.47;;;;;;;;;;5008322;28;20439;-76
2021/09/17 09:33:42;;;;;;;8.73;6.43;;;;;;;;;;5010200;28;20466;-75
2021/09/17 09:36:15;;;;;;;7.70;5.80;;;;;;;;;;5009509;28;20420;-66
2021/09/17 09:38:48;;;;;;;10.83;5.50;;;;;;;;;;5007441;28;20809;-65
2021/09/17 09:41:21;;;;;;;6.20;4.50;;;;;;;;;;5006071;28;20825;-65
2021/09/17 09:43:55;;;;;;;9.50;6.43;;;;;;;;;;5007021;28;20427;-69
2021/09/17 09:46:51;;;;;;;5.90;5.30;;;;;;;;;;5007542;28;20430;-66
2021/09/17 09:49:24;;;;;;;7.23;5.80;;;;;;;;;;4995779;28;20451;-76
2021/09/17 09:52:02;;;;;;;6.50;5.23;;;;;;;;;;4995286;28;20420;-69
2021/09/17 09:54:29;;;;;;;8.83;6.87;;;;;;;;;;5008989;28;20891;-67
2021/09/17 09:56:56;;;;;;;8.47;5.37;;;;;;;;;;5010167;28;20488;-68
2021/09/17 09:59:23;;;;;;;7.00;4.40;;;;;;;;;;5005759;28;20456;-67
2021/09/17 10:01:50;;;;;;;6.40;3.00;;;;;;;;;;5013617;28;20423;-67
2021/09/17 10:04:17;;;;;;;5.63;3.97;;;;;;;;;;5011018;28;20931;-67
2021/09/17 10:06:44;;;;;;;7.93;4.53;;;;;;;;;;5002987;28;20428;-66
2021/09/17 10:09:11;;;;;;;6.43;4.27;;;;;;;;;;5004640;28;21056;-67
2021/09/17 10:11:37;;;;;;;8.37;4.50;;;;;;;;;;4998334;28;20432;-67
2021/09/17 10:14:04;;;;;;;7.00;5.00;;;;;;;;;;5008509;28;20446;-67
2021/09/17 10:16:32;;;;;;;4.70;3.40;;;;;;;;;;5009995;28;20431;-67
2021/09/17 10:18:58;;;;;;;6.50;3.60;;;;;;;;;;5002878;28;20463;-72
2021/09/17 10:21:43;;;;;;;4.40;3.70;;;;;;;;;;5010811;28;20474;-72
2021/09/17 10:24:29;;;;;;;4.30;3.43;;;;;;;;;;4993353;28;20427;-74
2021/09/17 10:27:19;;;;;;;8.10;4.53;;;;;;;;;;5004803;28;20876;-73
2021/09/17 10:29:46;;;;;;;4.63;3.77;;;;;;;;;;5008859;28;20542;-74
2021/09/17 10:32:27;;;;;;;8.40;3.83;;;;;;;;;;5004834;28;20460;-74
2021/09/17 10:35:10;;;;;;;5.10;3.30;;;;;;;;;;5009835;28;20428;-77
2021/09/17 10:37:48;;;;;;;4.53;3.30;;;;;;;;;;5015494;28;20434;-77
2021/09/17 10:40:14;;;;;;;5.67;4.77;;;;;;;;;;5012971;28;20458;-81
2021/09/17 10:43:00;;;;;;;5.90;4.13;;;;;;;;;;5013090;28;20428;-79
2021/09/17 10:45:37;;;;;;;5.40;3.80;;;;;;;;;;5009711;28;20412;-67
2021/09/17 10:48:03;;;;;;;3.70;3.10;;;;;;;;;;5004660;28;20924;-70
2021/09/17 10:50:49;;;;;;;3.80;2.00;;;;;;;;;;5002691;28;20505;-70
2021/09/17 10:53:35;;;;;;;3.20;2.10;;;;;;;;;;5006229;28;20432;-69
2021/09/17 10:56:02;;;;;;;3.60;2.43;;;;;;;;;;5005884;28;20440;-70
2021/09/17 10:58:30;;;;;;;2.90;1.70;;;;;;;;;;5007196;28;20469;-70
2021/09/17 11:00:57;;;;;;;2.70;1.40;;;;;;;;;;5008331;28;20525;-69
2021/09/17 11:03:50;;;;;;;1.60;0.90;;;;;;;;;;5006123;28;20542;-70
2021/09/17 11:06:22;;;;;;;6.90;2.70;;;;;;;;;;5004031;28;20419;-69
2021/09/17 11:09:00;;;;;;;3.20;1.80;;;;;;;;;;5008090;28;20736;-70
2021/09/17 11:11:42;;;;;;;2.50;1.90;;;;;;;;;;5008737;28;20431;-70
2021/09/17 11:14:14;;;;;;;3.03;2.00;;;;;;;;;;5006985;28;20419;-69
2021/09/17 11:16:41;;;;;;;2.33;1.77;;;;;;;;;;5008393;28;21216;-69
2021/09/17 11:19:08;;;;;;;3.97;1.87;;;;;;;;;;5010871;28;20454;-70
2021/09/17 11:21:35;;;;;;;8.43;3.27;;;;;;;;;;5009627;28;20462;-69
2021/09/17 11:24:02;;;;;;;3.00;2.13;;;;;;;;;;5008514;28;20761;-69
2021/09/17 11:26:29;;;;;;;2.80;2.00;;;;;;;;;;5005870;28;20482;-70
2021/09/17 11:28:58;;;;;;;3.30;2.00;;;;;;;;;;5007598;28;20538;-69
2021/09/17 11:31:31;;;;;;;2.30;1.60;;;;;;;;;;5009368;28;20506;-70
2021/09/17 11:33:58;;;;;;;2.63;1.70;;;;;;;;;;4985924;28;20432;-69
2021/09/17 11:36:43;;;;;;;2.90;1.93;;;;;;;;;;5001123;28;20921;-69
2021/09/17 11:39:15;;;;;;;2.80;1.77;;;;;;;;;;5004896;28;20498;-69
2021/09/17 11:41:42;;;;;;;3.27;2.00;;;;;;;;;;5009305;28;20457;-70
2021/09/17 11:44:08;;;;;;;2.93;1.70;;;;;;;;;;5006148;28;20427;-71
2021/09/17 11:46:34;;;;;;;2.47;1.83;;;;;;;;;;5008643;28;20424;-70
2021/09/17 11:49:00;;;;;;;4.53;1.97;;;;;;;;;;5008643;28;20845;-70
2021/09/17 11:51:26;;;;;;;2.60;2.00;;;;;;;;;;5006316;28;20446;-69
2021/09/17 11:53:52;;;;;;;2.53;1.60;;;;;;;;;;5009478;28;20439;-70
2021/09/17 11:56:18;;;;;;;4.73;2.17;;;;;;;;;;5009998;28;20432;-70
2021/09/17 11:58:45;;;;;;;3.20;1.80;;;;;;;;;;5009425;28;20447;-70
2021/09/17 12:01:25;;;;;;;3.30;2.13;;;;;;;;;;5008317;28;20455;-70
2021/09/17 12:03:52;;;;;;;1.97;1.40;;;;;;;;;;5008101;28;20526;-71
2021/09/17 12:06:18;;;;;;;2.87;1.70;;;;;;;;;;5007872;28;20784;-70
2021/09/17 12:08:45;;;;;;;2.90;2.00;;;;;;;;;;5004738;28;20868;-71
2021/09/17 12:11:11;;;;;;;2.73;1.70;;;;;;;;;;5010093;28;20427;-71
2021/09/17 12:13:37;;;;;;;4.80;1.80;;;;;;;;;;5009226;28;20510;-70
2021/09/17 12:16:09;;;;;;;3.63;2.00;;;;;;;;;;5001828;28;20420;-70
2021/09/17 12:18:35;;;;;;;5.70;2.10;;;;;;;;;;5008725;28;20446;-70
2021/09/17 12:21:04;;;;;;;3.33;2.20;;;;;;;;;;5007182;28;20462;-70
2021/09/17 12:23:37;;;;;;;2.27;1.70;;;;;;;;;;5003973;28;20504;-70
2021/09/17 12:26:19;;;;;;;3.00;2.10;;;;;;;;;;5005603;28;20439;-70
2021/09/17 12:28:46;;;;;;;2.60;2.13;;;;;;;;;;5004137;28;20439;-69
2021/09/17 12:31:27;;;;;;;2.37;1.73;;;;;;;;;;5000468;28;20492;-70
2021/09/17 12:34:04;;;;;;;3.07;1.97;;;;;;;;;;5009658;28;20928;-70
2021/09/17 12:36:30;;;;;;;2.60;1.80;;;;;;;;;;5006459;28;20434;-69
2021/09/17 12:39:00;;;;;;;2.37;1.70;;;;;;;;;;4991573;28;20518;-70
2021/09/17 12:41:26;;;;;;;2.70;1.90;;;;;;;;;;4993132;28;20467;-69
2021/09/17 12:44:04;;;;;;;2.87;2.23;;;;;;;;;;5009452;28;20510;-70
2021/09/17 12:46:34;;;;;;;3.30;1.60;;;;;;;;;;5010245;28;20415;-70
2021/09/17 12:49:01;;;;;;;3.10;1.77;;;;;;;;;;5006159;28;20466;-70
2021/09/17 12:51:28;;;;;;;2.60;1.73;;;;;;;;;;5007338;28;20506;-70
2021/09/17 12:53:58;;;;;;;3.83;2.07;;;;;;;;;;5008825;28;20423;-70
2021/09/17 12:56:24;;;;;;;4.23;1.80;;;;;;;;;;5010208;28;20430;-69
2021/09/17 12:59:09;;;;;;;3.80;2.30;;;;;;;;;;5003914;28;20586;-69
2021/09/17 13:01:36;;;;;;;3.17;2.00;;;;;;;;;;5009065;28;20454;-70
2021/09/17 13:04:02;;;;;;;2.43;1.57;;;;;;;;;;5004233;28;20904;-70
2021/09/17 13:06:28;;;;;;;2.40;1.53;;;;;;;;;;5009547;28;20455;-71
2021/09/17 13:08:54;;;;;;;3.00;1.90;;;;;;;;;;5014323;28;20978;-70
2021/09/17 13:11:20;;;;;;;2.53;1.77;;;;;;;;;;5010843;28;20461;-70
2021/09/17 13:13:46;;;;;;;3.20;1.77;;;;;;;;;;5005902;28;20430;-70
2021/09/17 13:16:13;;;;;;;3.70;1.90;;;;;;;;;;5011033;28;20423;-70
2021/09/17 13:18:39;;;;;;;2.80;1.90;;;;;;;;;;5012402;28;20443;-69
2021/09/17 13:21:05;;;;;;;3.73;1.90;;;;;;;;;;5010411;28;20452;-69
2021/09/17 13:23:31;;;;;;;2.93;2.03;;;;;;;;;;5010619;28;20420;-69
2021/09/17 13:25:57;;;;;;;3.03;2.30;;;;;;;;;;5013652;28;20419;-69
2021/09/17 13:28:23;;;;;;;2.87;2.20;;;;;;;;;;5008476;28;20503;-69
2021/09/17 13:30:49;;;;;;;4.17;2.60;;;;;;;;;;5011524;28;20547;-69
2021/09/17 13:33:16;;;;;;;2.83;2.13;;;;;;;;;;5011858;28;20470;-69
2021/09/17 13:35:44;;;;;;;3.00;2.40;;;;;;;;;;5013112;28;20518;-69
2021/09/17 13:38:10;;;;;;;3.20;2.30;;;;;;;;;;4988229;28;20493;-69
2021/09/17 13:40:37;;;;;;;3.70;2.57;;;;;;;;;;5009947;28;20531;-69
2021/09/17 13:43:03;;;;;;;6.53;2.60;;;;;;;;;;5009657;28;20416;-69
2021/09/17 13:45:29;;;;;;;3.73;3.20;;;;;;;;;;5008571;28;20434;-69
2021/09/17 13:47:55;;;;;;;3.90;2.90;;;;;;;;;;5012824;28;20428;-69
2021/09/17 13:50:22;;;;;;;4.10;2.60;;;;;;;;;;5013203;28;20920;-69
2021/09/17 13:52:56;;;;;;;6.00;2.70;;;;;;;;;;5010207;28;20435;-69
2021/09/17 13:55:24;;;;;;;3.40;2.70;;;;;;;;;;5017365;28;20435;-69
2021/09/17 13:57:52;;;;;;;3.50;2.50;;;;;;;;;;5009820;28;20525;-69
2021/09/17 14:00:18;;;;;;;3.63;2.23;;;;;;;;;;5012216;28;20819;-69
2021/09/17 14:02:44;;;;;;;3.30;2.30;;;;;;;;;;5011750;28;20431;-70
2021/09/17 14:05:10;;;;;;;2.80;2.30;;;;;;;;;;5005119;28;20435;-70
2021/09/17 14:07:37;;;;;;;3.33;2.83;;;;;;;;;;5009453;28;20490;-70
2021/09/17 14:10:07;;;;;;;4.60;2.70;;;;;;;;;;5005869;28;20486;-69
2021/09/17 14:12:33;;;;;;;4.60;2.73;;;;;;;;;;5007375;28;20446;-69
2021/09/17 14:14:59;;;;;;;3.30;2.43;;;;;;;;;;5003424;28;20797;-70
2021/09/17 14:17:25;;;;;;;3.13;2.37;;;;;;;;;;5012755;28;20786;-70
2021/09/17 14:19:51;;;;;;;4.70;2.20;;;;;;;;;;5011254;28;20474;-70
2021/09/17 14:22:17;;;;;;;3.23;2.33;;;;;;;;;;5006857;28;20431;-69
2021/09/17 14:24:43;;;;;;;4.77;2.50;;;;;;;;;;5010503;28;20862;-69
2021/09/17 14:27:09;;;;;;;4.30;3.60;;;;;;;;;;5009644;28;20816;-69
2021/09/17 14:29:36;;;;;;;3.73;2.90;;;;;;;;;;5011496;28;20525;-70
2021/09/17 14:32:03;;;;;;;5.20;3.07;;;;;;;;;;5010986;28;20827;-70
2021/09/17 14:34:29;;;;;;;3.53;2.53;;;;;;;;;;5008594;28;20423;-70
2021/09/17 14:36:55;;;;;;;3.50;2.60;;;;;;;;;;5008154;28;20434;-70